sensor_id;sensor_type;location;lat;lon;timestamp;pressure;altitude;pressure_sealevel;temperature;humidity
76054;BME280;64752;48.870;9.082;2024-01-07T00:01:33;97366.22;;;5.02;100.00
76054;BME280;64752;48.870;9.082;2024-01-07T00:03:58;97373.63;;;5.14;100.00
76054;BME280;64752;48.870;9.082;2024-01-07T00:06:23;97373.75;;;5.10;100.00
76054;BME280;64752;48.870;9.082;2024-01-07T00:08:49;97370.22;;;5.14;100.00
76054;BME280;64752;48.870;9.082;2024-01-07T00:11:14;97378.81;;;5.13;100.00
76054;BME280;64752;48.870;9.082;2024-01-07T00:13:40;97368.63;;;5.08;100.00
76054;BME280;64752;48.870;9.082;2024-01-07T00:16:06;97374.63;;;5.07;100.00
76054;BME280;64752;48.870;9.082;2024-01-07T00:18:34;97384.06;;;5.08;100.00
76054;BME280;64752;48.870;9.082;2024-01-07T00:20:59;97384.88;;;5.09;100.00
76054;BME280;64752;48.870;9.082;2024-01-07T00:23:25;97378.25;;;5.00;100.00
76054;BME280;64752;48.870;9.082;2024-01-07T00:25:50;97382.50;;;5.01;100.00
76054;BME280;64752;48.870;9.082;2024-01-07T00:28:16;97386.84;;;4.99;100.00
76054;BME280;64752;48.870;9.082;2024-01-07T00:30:41;97383.53;;;4.94;100.00
76054;BME280;64752;48.870;9.082;2024-01-07T00:33:06;97373.19;;;4.97;100.00
76054;BME280;64752;48.870;9.082;2024-01-07T00:35:32;97379.31;;;4.91;100.00
76054;BME280;64752;48.870;9.082;2024-01-07T00:37:57;97381.97;;;4.87;100.00
76054;BME280;64752;48.870;9.082;2024-01-07T00:40:23;97375.72;;;4.98;100.00
76054;BME280;64752;48.870;9.082;2024-01-07T00:42:48;97380.13;;;4.93;100.00
76054;BME280;64752;48.870;9.082;2024-01-07T00:45:14;97379.31;;;4.91;100.00
76054;BME280;64752;48.870;9.082;2024-01-07T00:47:39;97379.22;;;4.94;100.00
76054;BME280;64752;48.870;9.082;2024-01-07T00:50:05;97381.75;;;4.96;100.00
76054;BME280;64752;48.870;9.082;2024-01-07T00:52:30;97378.66;;;4.81;100.00
76054;BME280;64752;48.870;9.082;2024-01-07T00:54:56;97378.72;;;4.80;100.00
76054;BME280;64752;48.870;9.082;2024-01-07T00:57:22;97380.31;;;4.84;100.00
76054;BME280;64752;48.870;9.082;2024-01-07T00:59:47;97380.47;;;4.78;100.00
76054;BME280;64752;48.870;9.082;2024-01-07T01:02:13;97384.88;;;4.71;100.00
76054;BME280;64752;48.870;9.082;2024-01-07T01:04:39;97382.19;;;4.76;100.00
76054;BME280;64752;48.870;9.082;2024-01-07T01:07:05;97378.75;;;4.77;100.00
76054;BME280;64752;48.870;9.082;2024-01-07T01:09:30;97386.41;;;4.80;100.00
76054;BME280;64752;48.870;9.082;2024-01-07T01:11:56;97391.59;;;4.77;100.00
76054;BME280;64752;48.870;9.082;2024-01-07T01:14:21;97382.25;;;4.74;100.00
76054;BME280;64752;48.870;9.082;2024-01-07T01:16:46;97390.81;;;4.75;100.00
76054;BME280;64752;48.870;9.082;2024-01-07T01:19:12;97392.56;;;4.73;100.00
76054;BME280;64752;48.870;9.082;2024-01-07T01:21:37;97397.81;;;4.67;100.00
76054;BME280;64752;48.870;9.082;2024-01-07T01:24:03;97398.50;;;4.75;100.00
76054;BME280;64752;48.870;9.082;2024-01-07T01:26:28;97403.50;;;4.81;100.00
76054;BME280;64752;48.870;9.082;2024-01-07T01:28:53;97403.50;;;4.81;100.00
76054;BME280;64752;48.870;9.082;2024-01-07T01:31:19;97401.25;;;4.67;100.00
76054;BME280;64752;48.870;9.082;2024-01-07T01:33:44;97405.41;;;4.73;100.00
76054;BME280;64752;48.870;9.082;2024-01-07T01:36:09;97402.63;;;4.82;100.00
76054;BME280;64752;48.870;9.082;2024-01-07T01:38:38;97401.81;;;4.80;100.00
76054;BME280;64752;48.870;9.082;2024-01-07T01:41:03;97402.75;;;4.76;100.00
76054;BME280;64752;48.870;9.082;2024-01-07T01:43:29;97407.00;;;4.78;100.00
76054;BME280;64752;48.870;9.082;2024-01-07T01:45:55;97400.09;;;4.80;100.00
76054;BME280;64752;48.870;9.082;2024-01-07T01:48:22;97414.75;;;4.75;100.00
76054;BME280;64752;48.870;9.082;2024-01-07T01:50:48;97404.41;;;4.78;100.00
76054;BME280;64752;48.870;9.082;2024-01-07T01:53:14;97406.00;;;4.84;100.00
76054;BME280;64752;48.870;9.082;2024-01-07T01:55:41;97413.00;;;4.77;100.00
76054;BME280;64752;48.870;9.082;2024-01-07T01:58:08;97405.13;;;4.85;100.00
76054;BME280;64752;48.870;9.082;2024-01-07T02:00:34;97405.25;;;4.79;100.00
76054;BME280;64752;48.870;9.082;2024-01-07T02:02:59;97400.31;;;4.70;100.00
76054;BME280;64752;48.870;9.082;2024-01-07T02:05:26;97408.97;;;4.66;100.00
76054;BME280;64752;48.870;9.082;2024-01-07T02:07:51;97412.88;;;4.83;100.00
76054;BME280;64752;48.870;9.082;2024-01-07T02:10:17;97411.16;;;4.82;100.00
76054;BME280;64752;48.870;9.082;2024-01-07T02:12:42;97404.34;;;4.81;100.00
76054;BME280;64752;48.870;9.082;2024-01-07T02:15:08;97413.16;;;4.70;100.00
76054;BME280;64752;48.870;9.082;2024-01-07T02:17:33;97413.13;;;4.71;100.00
76054;BME280;64752;48.870;9.082;2024-01-07T02:19:59;97416.50;;;4.73;100.00
76054;BME280;64752;48.870;9.082;2024-01-07T02:22:24;97412.94;;;4.80;100.00
76054;BME280;64752;48.870;9.082;2024-01-07T02:24:50;97411.94;;;4.88;100.00
76054;BME280;64752;48.870;9.082;2024-01-07T02:27:15;97415.50;;;4.80;100.00
76054;BME280;64752;48.870;9.082;2024-01-07T02:29:40;97413.69;;;4.86;100.00
76054;BME280;64752;48.870;9.082;2024-01-07T02:32:06;97413.72;;;4.84;100.00
76054;BME280;64752;48.870;9.082;2024-01-07T02:34:31;97410.41;;;4.79;100.00
76054;BME280;64752;48.870;9.082;2024-01-07T02:36:56;97412.13;;;4.78;100.00
76054;BME280;64752;48.870;9.082;2024-01-07T02:39:22;97411.41;;;4.72;100.00
76054;BME280;64752;48.870;9.082;2024-01-07T02:41:47;97412.41;;;4.64;100.00
76054;BME280;64752;48.870;9.082;2024-01-07T02:44:12;97413.16;;;4.70;100.00
76054;BME280;64752;48.870;9.082;2024-01-07T02:46:38;97420.03;;;4.69;100.00
76054;BME280;64752;48.870;9.082;2024-01-07T02:49:03;97404.78;;;4.61;100.00
76054;BME280;64752;48.870;9.082;2024-01-07T02:51:28;97408.06;;;4.68;100.00
76054;BME280;64752;48.870;9.082;2024-01-07T02:53:54;97408.13;;;4.65;100.00
76054;BME280;64752;48.870;9.082;2024-01-07T02:56:19;97408.16;;;4.63;100.00
76054;BME280;64752;48.870;9.082;2024-01-07T02:58:44;97408.97;;;4.66;100.00
76054;BME280;64752;48.870;9.082;2024-01-07T03:01:10;97412.22;;;4.74;100.00
76054;BME280;64752;48.870;9.082;2024-01-07T03:03:36;97413.97;;;4.72;100.00
76054;BME280;64752;48.870;9.082;2024-01-07T03:06:02;97413.28;;;4.65;100.00
76054;BME280;64752;48.870;9.082;2024-01-07T03:08:27;97416.53;;;4.72;100.00
76054;BME280;64752;48.870;9.082;2024-01-07T03:10:53;97414.00;;;4.70;100.00
76054;BME280;64752;48.870;9.082;2024-01-07T03:13:19;97420.19;;;4.61;100.00
76054;BME280;64752;48.870;9.082;2024-01-07T03:15:44;97424.28;;;4.69;100.00
76054;BME280;64752;48.870;9.082;2024-01-07T03:18:09;97425.16;;;4.69;100.00
76054;BME280;64752;48.870;9.082;2024-01-07T03:20:35;97427.72;;;4.69;100.00
76054;BME280;64752;48.870;9.082;2024-01-07T03:23:01;97425.03;;;4.75;100.00
76054;BME280;64752;48.870;9.082;2024-01-07T03:25:26;97421.44;;;4.82;100.00
76054;BME280;64752;48.870;9.082;2024-01-07T03:27:52;97426.72;;;4.76;100.00
76054;BME280;64752;48.870;9.082;2024-01-07T03:30:17;97430.22;;;4.72;100.00
76054;BME280;64752;48.870;9.082;2024-01-07T03:32:42;97427.53;;;4.78;100.00
76054;BME280;64752;48.870;9.082;2024-01-07T03:35:08;97431.88;;;4.75;100.00
76054;BME280;64752;48.870;9.082;2024-01-07T03:37:34;97434.66;;;4.66;100.00
76054;BME280;64752;48.870;9.082;2024-01-07T03:39:59;97436.97;;;4.78;100.00
76054;BME280;64752;48.870;9.082;2024-01-07T03:42:25;97440.53;;;4.71;100.00
76054;BME280;64752;48.870;9.082;2024-01-07T03:44:50;97444.94;;;4.66;100.00
76054;BME280;64752;48.870;9.082;2024-01-07T03:47:15;97447.50;;;4.64;100.00
76054;BME280;64752;48.870;9.082;2024-01-07T03:49:41;97443.31;;;4.61;100.00
76054;BME280;64752;48.870;9.082;2024-01-07T03:52:07;97441.41;;;4.70;100.00
76054;BME280;64752;48.870;9.082;2024-01-07T03:54:32;97447.41;;;4.69;100.00
76054;BME280;64752;48.870;9.082;2024-01-07T03:56:58;97436.47;;;4.60;100.00
76054;BME280;64752;48.870;9.082;2024-01-07T03:59:23;97441.56;;;4.62;100.00
76054;BME280;64752;48.870;9.082;2024-01-07T04:01:51;97441.53;;;4.63;100.00
76054;BME280;64752;48.870;9.082;2024-01-07T04:04:16;97440.06;;;4.52;100.00
76054;BME280;64752;48.870;9.082;2024-01-07T04:06:42;97441.94;;;4.43;100.00
76054;BME280;64752;48.870;9.082;2024-01-07T04:09:07;97445.31;;;4.46;100.00
76054;BME280;64752;48.870;9.082;2024-01-07T04:11:39;97448.03;;;4.39;100.00
76054;BME280;64752;48.870;9.082;2024-01-07T04:14:04;97444.56;;;4.40;100.00
76054;BME280;64752;48.870;9.082;2024-01-07T04:16:29;97443.78;;;4.35;100.00
76054;BME280;64752;48.870;9.082;2024-01-07T04:18:55;97444.56;;;4.40;100.00
76054;BME280;64752;48.870;9.082;2024-01-07T04:21:20;97448.88;;;4.38;100.00
76054;BME280;64752;48.870;9.082;2024-01-07T04:23:46;97451.50;;;4.35;100.00
76054;BME280;64752;48.870;9.082;2024-01-07T04:26:11;97457.53;;;4.33;100.00
76054;BME280;64752;48.870;9.082;2024-01-07T04:28:42;97457.59;;;4.30;100.00
76054;BME280;64752;48.870;9.082;2024-01-07T04:31:08;97459.16;;;4.37;100.00
76054;BME280;64752;48.870;9.082;2024-01-07T04:33:33;97465.31;;;4.28;100.00
76054;BME280;64752;48.870;9.082;2024-01-07T04:35:59;97466.22;;;4.27;100.00
76054;BME280;64752;48.870;9.082;2024-01-07T04:38:26;97467.75;;;4.36;100.00
76054;BME280;64752;48.870;9.082;2024-01-07T04:40:51;97467.03;;;4.28;100.00
76054;BME280;64752;48.870;9.082;2024-01-07T04:43:18;97466.19;;;4.29;100.00
76054;BME280;64752;48.870;9.082;2024-01-07T04:45:45;97469.63;;;4.26;100.00
76054;BME280;64752;48.870;9.082;2024-01-07T04:48:10;97468.69;;;4.32;100.00
76054;BME280;64752;48.870;9.082;2024-01-07T04:50:36;97464.38;;;4.34;100.00
76054;BME280;64752;48.870;9.082;2024-01-07T04:53:01;97477.13;;;4.38;100.00
76054;BME280;64752;48.870;9.082;2024-01-07T04:55:27;97478.94;;;4.32;100.00
76054;BME280;64752;48.870;9.082;2024-01-07T04:57:53;97476.28;;;4.38;100.00
76054;BME280;64752;48.870;9.082;2024-01-07T05:00:18;97475.47;;;4.36;100.00
76054;BME280;64752;48.870;9.082;2024-01-07T05:02:44;97482.34;;;4.34;100.00
76054;BME280;64752;48.870;9.082;2024-01-07T05:05:09;97478.91;;;4.33;100.00
76054;BME280;64752;48.870;9.082;2024-01-07T05:07:35;97476.38;;;4.32;100.00
76054;BME280;64752;48.870;9.082;2024-01-07T05:10:00;97478.75;;;4.41;100.00
76054;BME280;64752;48.870;9.082;2024-01-07T05:12:25;97483.94;;;4.39;100.00
76054;BME280;64752;48.870;9.082;2024-01-07T05:14:51;97484.06;;;4.32;100.00
76054;BME280;64752;48.870;9.082;2024-01-07T05:17:17;97481.47;;;4.33;100.00
76054;BME280;64752;48.870;9.082;2024-01-07T05:19:43;97495.22;;;4.32;100.00
76054;BME280;64752;48.870;9.082;2024-01-07T05:22:08;97495.31;;;4.26;100.00
76054;BME280;64752;48.870;9.082;2024-01-07T05:24:36;97492.66;;;4.31;100.00
76054;BME280;64752;48.870;9.082;2024-01-07T05:27:02;97489.16;;;4.35;100.00
76054;BME280;64752;48.870;9.082;2024-01-07T05:29:28;97496.03;;;4.33;100.00
76054;BME280;64752;48.870;9.082;2024-01-07T05:31:53;97496.97;;;4.29;100.00
76054;BME280;64752;48.870;9.082;2024-01-07T05:34:18;97500.41;;;4.28;100.00
76054;BME280;64752;48.870;9.082;2024-01-07T05:36:44;97501.19;;;4.33;100.00
76054;BME280;64752;48.870;9.082;2024-01-07T05:39:09;97503.00;;;4.26;100.00
76054;BME280;64752;48.870;9.082;2024-01-07T05:41:37;97502.88;;;4.34;100.00
76054;BME280;64752;48.870;9.082;2024-01-07T05:44:03;97502.94;;;4.31;100.00
76054;BME280;64752;48.870;9.082;2024-01-07T05:46:28;97508.84;;;4.36;100.00
76054;BME280;64752;48.870;9.082;2024-01-07T05:48:53;97506.38;;;4.28;100.00
76054;BME280;64752;48.870;9.082;2024-01-07T05:51:19;97509.75;;;4.32;100.00
76054;BME280;64752;48.870;9.082;2024-01-07T05:53:45;97512.44;;;4.24;100.00
76054;BME280;64752;48.870;9.082;2024-01-07T05:56:11;97522.66;;;4.29;100.00
76054;BME280;64752;48.870;9.082;2024-01-07T05:58:36;97520.06;;;4.30;100.00
76054;BME280;64752;48.870;9.082;2024-01-07T06:01:02;97522.66;;;4.29;100.00
76054;BME280;64752;48.870;9.082;2024-01-07T06:03:27;97520.91;;;4.29;100.00
76054;BME280;64752;48.870;9.082;2024-01-07T06:05:52;97524.44;;;4.23;100.00
76054;BME280;64752;48.870;9.082;2024-01-07T06:08:18;97520.09;;;4.27;100.00
76054;BME280;64752;48.870;9.082;2024-01-07T06:10:43;97526.13;;;4.24;100.00
76054;BME280;64752;48.870;9.082;2024-01-07T06:13:09;97530.50;;;4.19;100.00
76054;BME280;64752;48.870;9.082;2024-01-07T06:15:34;97527.06;;;4.20;100.00
76054;BME280;64752;48.870;9.082;2024-01-07T06:18:00;97533.94;;;4.17;100.00
76054;BME280;64752;48.870;9.082;2024-01-07T06:20:25;97531.34;;;4.20;100.00
76054;BME280;64752;48.870;9.082;2024-01-07T06:22:50;97538.19;;;4.19;100.00
76054;BME280;64752;48.870;9.082;2024-01-07T06:25:16;97539.16;;;4.14;100.00
76054;BME280;64752;48.870;9.082;2024-01-07T06:27:41;97545.16;;;4.13;100.00
76054;BME280;64752;48.870;9.082;2024-01-07T06:30:07;97548.56;;;4.13;100.00
76054;BME280;64752;48.870;9.082;2024-01-07T06:32:33;97548.63;;;4.10;100.00
76054;BME280;64752;48.870;9.082;2024-01-07T06:34:59;97547.72;;;4.11;100.00
76054;BME280;64752;48.870;9.082;2024-01-07T06:37:24;97553.78;;;4.07;100.00
76054;BME280;64752;48.870;9.082;2024-01-07T06:39:50;97552.88;;;4.10;100.00
76054;BME280;64752;48.870;9.082;2024-01-07T06:42:18;97555.53;;;4.07;100.00
76054;BME280;64752;48.870;9.082;2024-01-07T06:44:43;97559.72;;;4.11;100.00
76054;BME280;64752;48.870;9.082;2024-01-07T06:47:09;97565.69;;;4.11;100.00
76054;BME280;64752;48.870;9.082;2024-01-07T06:49:34;97571.78;;;4.04;100.00
76054;BME280;64752;48.870;9.082;2024-01-07T06:51:59;97571.72;;;4.09;100.00
76054;BME280;64752;48.870;9.082;2024-01-07T06:54:25;97567.41;;;4.12;100.00
76054;BME280;64752;48.870;9.082;2024-01-07T06:56:50;97569.16;;;4.10;100.00
76054;BME280;64752;48.870;9.082;2024-01-07T06:59:16;97575.16;;;4.08;100.00
76054;BME280;64752;48.870;9.082;2024-01-07T07:01:41;97575.03;;;4.15;100.00
76054;BME280;64752;48.870;9.082;2024-01-07T07:04:07;97574.28;;;4.10;100.00
76054;BME280;64752;48.870;9.082;2024-01-07T07:06:32;97588.78;;;4.11;100.00
76054;BME280;64752;48.870;9.082;2024-01-07T07:08:58;97585.50;;;4.04;100.00
76054;BME280;64752;48.870;9.082;2024-01-07T07:11:23;97596.63;;;4.02;100.00
76054;BME280;64752;48.870;9.082;2024-01-07T07:13:48;97592.38;;;4.01;100.00
76054;BME280;64752;48.870;9.082;2024-01-07T07:16:14;97595.00;;;3.96;100.00
76054;BME280;64752;48.870;9.082;2024-01-07T07:18:39;97595.00;;;3.96;100.00
76054;BME280;64752;48.870;9.082;2024-01-07T07:21:05;97604.44;;;3.96;100.00
76054;BME280;64752;48.870;9.082;2024-01-07T07:23:30;97603.72;;;3.86;100.00
76054;BME280;64752;48.870;9.082;2024-01-07T07:25:55;97611.44;;;3.84;100.00
76054;BME280;64752;48.870;9.082;2024-01-07T07:28:21;97609.81;;;3.79;100.00
76054;BME280;64752;48.870;9.082;2024-01-07T07:30:46;97620.03;;;3.80;100.00
76054;BME280;64752;48.870;9.082;2024-01-07T07:33:11;97615.00;;;3.73;100.00
76054;BME280;64752;48.870;9.082;2024-01-07T07:35:37;97620.13;;;3.74;100.00
76054;BME280;64752;48.870;9.082;2024-01-07T07:38:05;97628.72;;;3.70;100.00
76054;BME280;64752;48.870;9.082;2024-01-07T07:40:30;97628.66;;;3.75;100.00
76054;BME280;64752;48.870;9.082;2024-01-07T07:42:59;97629.56;;;3.72;100.00
76054;BME280;64752;48.870;9.082;2024-01-07T07:45:24;97643.22;;;3.73;100.00
76054;BME280;64752;48.870;9.082;2024-01-07T07:47:49;97639.81;;;3.71;100.00
76054;BME280;64752;48.870;9.082;2024-01-07T07:50:15;97644.97;;;3.69;100.00
76054;BME280;64752;48.870;9.082;2024-01-07T07:52:43;97645.84;;;3.70;100.00
76054;BME280;64752;48.870;9.082;2024-01-07T07:55:09;97644.16;;;3.65;100.00
76054;BME280;64752;48.870;9.082;2024-01-07T07:57:35;97647.53;;;3.69;100.00
76054;BME280;64752;48.870;9.082;2024-01-07T08:00:01;97651.81;;;3.70;100.00
76054;BME280;64752;48.870;9.082;2024-01-07T08:02:26;97648.44;;;3.66;100.00
76054;BME280;64752;48.870;9.082;2024-01-07T08:04:51;97652.75;;;3.64;100.00
76054;BME280;64752;48.870;9.082;2024-01-07T08:07:17;97656.97;;;3.65;100.00
76054;BME280;64752;48.870;9.082;2024-01-07T08:09:43;97658.69;;;3.68;100.00
76054;BME280;64752;48.870;9.082;2024-01-07T08:12:08;97650.13;;;3.67;100.00
76054;BME280;64752;48.870;9.082;2024-01-07T08:14:34;97659.53;;;3.69;100.00
76054;BME280;64752;48.870;9.082;2024-01-07T08:17:00;97662.94;;;3.67;100.00
76054;BME280;64752;48.870;9.082;2024-01-07T08:19:26;97669.78;;;3.67;100.00
76054;BME280;64752;48.870;9.082;2024-01-07T08:21:51;97672.28;;;3.73;100.00
76054;BME280;64752;48.870;9.082;2024-01-07T08:24:18;97667.25;;;3.65;100.00
76054;BME280;64752;48.870;9.082;2024-01-07T08:26:43;97672.34;;;3.69;100.00
76054;BME280;64752;48.870;9.082;2024-01-07T08:29:08;97668.94;;;3.68;100.00
76054;BME280;64752;48.870;9.082;2024-01-07T08:31:34;97672.34;;;3.67;100.00
76054;BME280;64752;48.870;9.082;2024-01-07T08:33:59;97673.28;;;3.63;100.00
76054;BME280;64752;48.870;9.082;2024-01-07T08:36:25;97677.53;;;3.64;100.00
76054;BME280;64752;48.870;9.082;2024-01-07T08:38:50;97678.41;;;3.61;100.00
76054;BME280;64752;48.870;9.082;2024-01-07T08:41:16;97671.50;;;3.66;100.00
76054;BME280;64752;48.870;9.082;2024-01-07T08:43:41;97683.44;;;3.69;100.00
76054;BME280;64752;48.870;9.082;2024-01-07T08:46:07;97682.50;;;3.76;99.35
76054;BME280;64752;48.870;9.082;2024-01-07T08:48:34;97688.50;;;3.74;98.78
76054;BME280;64752;48.870;9.082;2024-01-07T08:51:00;97685.16;;;3.69;100.00
76054;BME280;64752;48.870;9.082;2024-01-07T08:53:25;97679.94;;;3.76;98.70
76054;BME280;64752;48.870;9.082;2024-01-07T08:55:51;97685.94;;;3.75;98.68
76054;BME280;64752;48.870;9.082;2024-01-07T08:58:16;97688.50;;;3.75;100.00
76054;BME280;64752;48.870;9.082;2024-01-07T09:00:45;97691.13;;;3.69;99.50
76054;BME280;64752;48.870;9.082;2024-01-07T09:03:10;97687.59;;;3.79;100.00
76054;BME280;64752;48.870;9.082;2024-01-07T09:05:36;97687.59;;;3.79;100.00
76054;BME280;64752;48.870;9.082;2024-01-07T09:08:01;97702.91;;;3.84;100.00
76054;BME280;64752;48.870;9.082;2024-01-07T09:10:27;97691.00;;;3.78;100.00
76054;BME280;64752;48.870;9.082;2024-01-07T09:12:53;97701.25;;;3.80;99.52
76054;BME280;64752;48.870;9.082;2024-01-07T09:15:20;97712.38;;;3.79;100.00
76054;BME280;64752;48.870;9.082;2024-01-07T09:17:46;97708.88;;;3.86;100.00
76054;BME280;64752;48.870;9.082;2024-01-07T09:20:12;97717.53;;;3.77;100.00
76054;BME280;64752;48.870;9.082;2024-01-07T09:22:38;97719.22;;;3.78;100.00
76054;BME280;64752;48.870;9.082;2024-01-07T09:25:05;97728.66;;;3.76;100.00
76054;BME280;64752;48.870;9.082;2024-01-07T09:27:31;97733.03;;;3.70;100.00
76054;BME280;64752;48.870;9.082;2024-01-07T09:29:57;97730.50;;;3.65;100.00
76054;BME280;64752;48.870;9.082;2024-01-07T09:32:22;97733.84;;;3.73;100.00
76054;BME280;64752;48.870;9.082;2024-01-07T09:34:48;97729.66;;;3.63;100.00
76054;BME280;64752;48.870;9.082;2024-01-07T09:37:13;97732.22;;;3.66;100.00
76054;BME280;64752;48.870;9.082;2024-01-07T09:39:42;97737.25;;;3.72;100.00
76054;BME280;64752;48.870;9.082;2024-01-07T09:42:15;97740.63;;;3.76;100.00
76054;BME280;64752;48.870;9.082;2024-01-07T09:44:41;97739.00;;;3.67;100.00
76054;BME280;64752;48.870;9.082;2024-01-07T09:47:11;97745.84;;;3.68;100.00
76054;BME280;64752;48.870;9.082;2024-01-07T09:49:37;97737.38;;;3.63;100.00
76054;BME280;64752;48.870;9.082;2024-01-07T09:52:04;97743.44;;;3.54;100.00
76054;BME280;64752;48.870;9.082;2024-01-07T09:54:30;97741.81;;;3.47;100.00
76054;BME280;64752;48.870;9.082;2024-01-07T09:57:01;97735.81;;;3.50;100.00
76054;BME280;64752;48.870;9.082;2024-01-07T09:59:30;97728.94;;;3.53;100.00
76054;BME280;64752;48.870;9.082;2024-01-07T10:01:56;97740.84;;;3.59;100.00
76054;BME280;64752;48.870;9.082;2024-01-07T10:04:23;97745.13;;;3.57;100.00
76054;BME280;64752;48.870;9.082;2024-01-07T10:06:49;97729.81;;;3.49;100.00
76054;BME280;64752;48.870;9.082;2024-01-07T10:09:17;97753.75;;;3.51;100.00
76054;BME280;64752;48.870;9.082;2024-01-07T10:11:44;97740.13;;;3.47;99.44
76054;BME280;64752;48.870;9.082;2024-01-07T10:14:09;97734.94;;;3.51;96.17
76054;BME280;64752;48.870;9.082;2024-01-07T10:16:35;97734.13;;;3.45;94.18
76054;BME280;64752;48.870;9.082;2024-01-07T10:19:00;97729.00;;;3.47;91.58
76054;BME280;64752;48.870;9.082;2024-01-07T10:21:26;97727.88;;;3.70;89.63
76054;BME280;64752;48.870;9.082;2024-01-07T10:24:07;97742.38;;;3.74;87.15
76054;BME280;64752;48.870;9.082;2024-01-07T10:26:51;97740.63;;;3.77;86.58
76054;BME280;64752;48.870;9.082;2024-01-07T10:29:17;97743.88;;;3.92;86.28
76054;BME280;64752;48.870;9.082;2024-01-07T10:31:43;97751.50;;;3.95;86.48
76054;BME280;64752;48.870;9.082;2024-01-07T10:34:09;97746.44;;;3.90;85.33
76054;BME280;64752;48.870;9.082;2024-01-07T10:36:35;97740.94;;;4.18;84.79
76054;BME280;64752;48.870;9.082;2024-01-07T10:39:02;97750.44;;;4.10;84.34
76054;BME280;64752;48.870;9.082;2024-01-07T10:41:28;97750.44;;;4.11;83.85
76054;BME280;64752;48.870;9.082;2024-01-07T10:43:55;97753.31;;;3.88;84.85
76054;BME280;64752;48.870;9.082;2024-01-07T10:46:20;97759.19;;;3.96;85.45
76054;BME280;64752;48.870;9.082;2024-01-07T10:48:59;97751.50;;;3.95;85.91
76054;BME280;64752;48.870;9.082;2024-01-07T10:51:27;97758.63;;;3.71;86.45
76054;BME280;64752;48.870;9.082;2024-01-07T10:53:53;97748.44;;;3.66;87.44
76054;BME280;64752;48.870;9.082;2024-01-07T10:56:24;97756.13;;;3.65;87.62
76054;BME280;64752;48.870;9.082;2024-01-07T10:58:53;97762.88;;;3.74;87.93
76054;BME280;64752;48.870;9.082;2024-01-07T11:01:22;97757.03;;;3.64;88.49
76054;BME280;64752;48.870;9.082;2024-01-07T11:03:57;97759.53;;;3.65;88.91
76054;BME280;64752;48.870;9.082;2024-01-07T11:06:33;97752.72;;;3.66;88.49
76054;BME280;64752;48.870;9.082;2024-01-07T11:09:34;97753.66;;;3.57;90.20
76054;BME280;64752;48.870;9.082;2024-01-07T11:12:00;97755.44;;;3.52;89.93
76054;BME280;64752;48.870;9.082;2024-01-07T11:14:43;97767.41;;;3.52;90.86
76054;BME280;64752;48.870;9.082;2024-01-07T11:17:10;97770.00;;;3.47;91.57
76054;BME280;64752;48.870;9.082;2024-01-07T11:19:36;97768.22;;;3.54;92.92
76054;BME280;64752;48.870;9.082;2024-01-07T11:22:21;97770.09;;;3.39;89.08
76054;BME280;64752;48.870;9.082;2024-01-07T11:24:48;97770.16;;;3.35;89.72
76054;BME280;64752;48.870;9.082;2024-01-07T11:27:15;97771.78;;;3.40;90.70
76054;BME280;64752;48.870;9.082;2024-01-07T11:29:41;97776.03;;;3.44;90.90
76054;BME280;64752;48.870;9.082;2024-01-07T11:32:06;97771.00;;;3.32;90.44
76054;BME280;64752;48.870;9.082;2024-01-07T11:34:42;97777.94;;;3.25;90.66
76054;BME280;64752;48.870;9.082;2024-01-07T11:37:17;97771.03;;;3.31;92.26
76054;BME280;64752;48.870;9.082;2024-01-07T11:39:46;97772.81;;;3.24;93.33
76054;BME280;64752;48.870;9.082;2024-01-07T11:42:12;97771.09;;;3.21;92.94
76054;BME280;64752;48.870;9.082;2024-01-07T11:44:38;97769.53;;;3.05;92.77
76054;BME280;64752;48.870;9.082;2024-01-07T11:47:09;97774.75;;;2.96;92.96
76054;BME280;64752;48.870;9.082;2024-01-07T11:49:35;97768.78;;;2.95;93.21
76054;BME280;64752;48.870;9.082;2024-01-07T11:52:00;97776.56;;;2.83;92.94
76054;BME280;64752;48.870;9.082;2024-01-07T11:54:27;97781.72;;;2.80;93.68
76054;BME280;64752;48.870;9.082;2024-01-07T11:56:54;97786.81;;;2.83;94.83
76054;BME280;64752;48.870;9.082;2024-01-07T11:59:23;97777.44;;;2.85;95.04
76054;BME280;64752;48.870;9.082;2024-01-07T12:01:48;97786.78;;;2.86;94.49
76054;BME280;64752;48.870;9.082;2024-01-07T12:04:14;97787.63;;;2.86;95.29
76054;BME280;64752;48.870;9.082;2024-01-07T12:06:39;97774.88;;;2.83;93.68
76054;BME280;64752;48.870;9.082;2024-01-07T12:09:05;97777.38;;;2.91;93.20
76054;BME280;64752;48.870;9.082;2024-01-07T12:11:31;97786.38;;;3.31;98.78
76054;BME280;64752;48.870;9.082;2024-01-07T12:13:57;97788.44;;;2.96;93.82
76054;BME280;64752;48.870;9.082;2024-01-07T12:16:22;97791.09;;;2.84;93.00
76054;BME280;64752;48.870;9.082;2024-01-07T12:18:48;97794.53;;;2.78;93.69
76054;BME280;64752;48.870;9.082;2024-01-07T12:21:19;97792.88;;;2.71;94.45
76054;BME280;64752;48.870;9.082;2024-01-07T12:23:50;97791.28;;;2.53;94.70
76054;BME280;64752;48.870;9.082;2024-01-07T12:26:16;97796.47;;;2.47;94.60
76054;BME280;64752;48.870;9.082;2024-01-07T12:28:43;97794.69;;;2.55;95.57
76054;BME280;64752;48.870;9.082;2024-01-07T12:31:08;97790.41;;;2.59;95.14
76054;BME280;64752;48.870;9.082;2024-01-07T12:33:37;97807.47;;;2.55;95.46
76054;BME280;64752;48.870;9.082;2024-01-07T12:36:02;97798.13;;;2.53;94.76
76054;BME280;64752;48.870;9.082;2024-01-07T12:38:31;97798.97;;;2.51;95.45
76054;BME280;64752;48.870;9.082;2024-01-07T12:40:56;97791.34;;;2.45;95.03
76054;BME280;64752;48.870;9.082;2024-01-07T12:43:25;97803.25;;;2.53;95.10
76054;BME280;64752;48.870;9.082;2024-01-07T12:45:51;97802.41;;;2.52;95.04
76054;BME280;64752;48.870;9.082;2024-01-07T12:48:16;97798.13;;;2.51;95.50
76054;BME280;64752;48.870;9.082;2024-01-07T12:50:41;97801.59;;;2.44;94.98
76054;BME280;64752;48.870;9.082;2024-01-07T12:53:07;97799.03;;;2.44;94.56
76054;BME280;64752;48.870;9.082;2024-01-07T12:55:33;97804.97;;;2.49;94.52
76054;BME280;64752;48.870;9.082;2024-01-07T12:57:58;97804.97;;;2.49;94.82